sensor_id;sensor_type;location;lat;lon;timestamp;P1;durP1;ratioP1;P2;durP2;ratioP2
14076;SDS011;7114;51.100;13.998;2023-05-07T00:00:16;24.13;;;10.27;;
14076;SDS011;7114;51.100;13.998;2023-05-07T00:02:43;23.83;;;10.00;;
14076;SDS011;7114;51.100;13.998;2023-05-07T00:05:10;25.33;;;10.32;;
14076;SDS011;7114;51.100;13.998;2023-05-07T00:07:37;25.83;;;10.68;;
14076;SDS011;7114;51.100;13.998;2023-05-07T00:10:03;24.77;;;10.47;;
14076;SDS011;7114;51.100;13.998;2023-05-07T00:12:32;24.10;;;10.18;;
14076;SDS011;7114;51.100;13.998;2023-05-07T00:14:59;25.05;;;10.68;;
14076;SDS011;7114;51.100;13.998;2023-05-07T00:17:25;23.75;;;10.52;;
14076;SDS011;7114;51.100;13.998;2023-05-07T00:19:51;22.70;;;10.27;;
14076;SDS011;7114;51.100;13.998;2023-05-07T00:22:17;21.87;;;9.17;;
14076;SDS011;7114;51.100;13.998;2023-05-07T00:24:43;21.95;;;9.45;;
14076;SDS011;7114;51.100;13.998;2023-05-07T00:27:10;21.73;;;10.05;;
14076;SDS011;7114;51.100;13.998;2023-05-07T00:29:37;20.50;;;9.52;;
14076;SDS011;7114;51.100;13.998;2023-05-07T00:32:03;20.80;;;9.90;;
14076;SDS011;7114;51.100;13.998;2023-05-07T00:34:30;20.00;;;9.20;;
14076;SDS011;7114;51.100;13.998;2023-05-07T00:36:56;20.75;;;9.23;;
14076;SDS011;7114;51.100;13.998;2023-05-07T00:39:22;19.67;;;9.70;;
14076;SDS011;7114;51.100;13.998;2023-05-07T00:41:48;19.80;;;9.00;;
14076;SDS011;7114;51.100;13.998;2023-05-07T00:44:16;20.42;;;9.35;;
14076;SDS011;7114;51.100;13.998;2023-05-07T00:46:44;21.83;;;9.27;;
14076;SDS011;7114;51.100;13.998;2023-05-07T00:49:13;20.48;;;9.73;;
14076;SDS011;7114;51.100;13.998;2023-05-07T00:51:40;20.05;;;10.38;;
14076;SDS011;7114;51.100;13.998;2023-05-07T00:54:06;20.20;;;9.30;;
14076;SDS011;7114;51.100;13.998;2023-05-07T00:56:33;21.65;;;10.55;;
14076;SDS011;7114;51.100;13.998;2023-05-07T00:59:00;19.63;;;9.60;;
14076;SDS011;7114;51.100;13.998;2023-05-07T01:01:26;21.40;;;9.63;;
14076;SDS011;7114;51.100;13.998;2023-05-07T01:03:54;18.67;;;9.85;;
14076;SDS011;7114;51.100;13.998;2023-05-07T01:06:20;20.15;;;9.90;;
14076;SDS011;7114;51.100;13.998;2023-05-07T01:08:47;19.33;;;9.88;;
14076;SDS011;7114;51.100;13.998;2023-05-07T01:11:15;18.97;;;9.40;;
14076;SDS011;7114;51.100;13.998;2023-05-07T01:13:44;20.80;;;10.13;;
14076;SDS011;7114;51.100;13.998;2023-05-07T01:16:10;21.33;;;10.10;;
14076;SDS011;7114;51.100;13.998;2023-05-07T01:18:36;18.90;;;9.93;;
14076;SDS011;7114;51.100;13.998;2023-05-07T01:21:04;21.08;;;10.15;;
14076;SDS011;7114;51.100;13.998;2023-05-07T01:23:32;20.67;;;8.93;;
14076;SDS011;7114;51.100;13.998;2023-05-07T01:25:58;19.90;;;9.27;;
14076;SDS011;7114;51.100;13.998;2023-05-07T01:28:25;18.95;;;9.60;;
14076;SDS011;7114;51.100;13.998;2023-05-07T01:30:52;17.15;;;8.85;;
14076;SDS011;7114;51.100;13.998;2023-05-07T01:33:21;18.92;;;9.23;;
14076;SDS011;7114;51.100;13.998;2023-05-07T01:35:48;17.93;;;8.80;;
14076;SDS011;7114;51.100;13.998;2023-05-07T01:38:15;17.67;;;8.60;;
14076;SDS011;7114;51.100;13.998;2023-05-07T01:40:43;20.95;;;9.23;;
14076;SDS011;7114;51.100;13.998;2023-05-07T01:43:09;19.85;;;8.57;;
14076;SDS011;7114;51.100;13.998;2023-05-07T01:45:36;20.25;;;9.02;;
14076;SDS011;7114;51.100;13.998;2023-05-07T01:48:02;18.80;;;8.50;;
14076;SDS011;7114;51.100;13.998;2023-05-07T01:50:29;19.02;;;8.82;;
14076;SDS011;7114;51.100;13.998;2023-05-07T01:52:56;18.83;;;8.27;;
14076;SDS011;7114;51.100;13.998;2023-05-07T01:55:22;17.65;;;7.60;;
14076;SDS011;7114;51.100;13.998;2023-05-07T01:57:50;16.90;;;7.90;;
14076;SDS011;7114;51.100;13.998;2023-05-07T02:00:16;18.93;;;7.87;;
14076;SDS011;7114;51.100;13.998;2023-05-07T02:02:43;20.90;;;8.63;;
14076;SDS011;7114;51.100;13.998;2023-05-07T02:05:10;18.90;;;8.35;;
14076;SDS011;7114;51.100;13.998;2023-05-07T02:07:36;18.15;;;8.20;;
14076;SDS011;7114;51.100;13.998;2023-05-07T02:10:02;17.40;;;7.70;;
14076;SDS011;7114;51.100;13.998;2023-05-07T02:12:28;18.03;;;7.47;;
14076;SDS011;7114;51.100;13.998;2023-05-07T02:14:56;17.27;;;7.30;;
14076;SDS011;7114;51.100;13.998;2023-05-07T02:17:22;18.65;;;8.25;;
14076;SDS011;7114;51.100;13.998;2023-05-07T02:19:48;20.05;;;8.73;;
14076;SDS011;7114;51.100;13.998;2023-05-07T02:22:14;18.50;;;8.38;;
14076;SDS011;7114;51.100;13.998;2023-05-07T02:24:41;18.87;;;8.23;;
14076;SDS011;7114;51.100;13.998;2023-05-07T02:27:07;18.80;;;8.50;;
14076;SDS011;7114;51.100;13.998;2023-05-07T02:29:33;19.90;;;9.02;;
14076;SDS011;7114;51.100;13.998;2023-05-07T02:32:01;20.25;;;9.00;;
14076;SDS011;7114;51.100;13.998;2023-05-07T02:34:27;21.25;;;9.30;;
14076;SDS011;7114;51.100;13.998;2023-05-07T02:36:53;19.53;;;8.57;;
14076;SDS011;7114;51.100;13.998;2023-05-07T02:39:20;19.60;;;8.95;;
14076;SDS011;7114;51.100;13.998;2023-05-07T02:41:46;20.15;;;8.90;;
14076;SDS011;7114;51.100;13.998;2023-05-07T02:44:12;21.98;;;9.20;;
14076;SDS011;7114;51.100;13.998;2023-05-07T02:46:39;20.90;;;9.32;;
14076;SDS011;7114;51.100;13.998;2023-05-07T02:49:06;19.73;;;9.07;;
14076;SDS011;7114;51.100;13.998;2023-05-07T02:51:32;19.70;;;9.00;;
14076;SDS011;7114;51.100;13.998;2023-05-07T02:53:58;20.15;;;9.30;;
14076;SDS011;7114;51.100;13.998;2023-05-07T02:56:25;20.38;;;9.15;;
14076;SDS011;7114;51.100;13.998;2023-05-07T02:58:52;21.58;;;9.32;;
14076;SDS011;7114;51.100;13.998;2023-05-07T03:01:18;20.10;;;9.30;;
14076;SDS011;7114;51.100;13.998;2023-05-07T03:03:45;22.10;;;9.55;;
14076;SDS011;7114;51.100;13.998;2023-05-07T03:06:13;20.13;;;9.32;;
14076;SDS011;7114;51.100;13.998;2023-05-07T03:08:39;21.15;;;9.40;;
14076;SDS011;7114;51.100;13.998;2023-05-07T03:11:05;21.23;;;9.25;;
14076;SDS011;7114;51.100;13.998;2023-05-07T03:13:31;19.87;;;9.20;;
14076;SDS011;7114;51.100;13.998;2023-05-07T03:15:57;21.50;;;10.15;;
14076;SDS011;7114;51.100;13.998;2023-05-07T03:18:24;22.70;;;8.98;;
14076;SDS011;7114;51.100;13.998;2023-05-07T03:20:50;20.98;;;9.38;;
14076;SDS011;7114;51.100;13.998;2023-05-07T03:23:17;21.13;;;9.45;;
14076;SDS011;7114;51.100;13.998;2023-05-07T03:25:43;21.57;;;9.30;;
14076;SDS011;7114;51.100;13.998;2023-05-07T03:28:09;21.48;;;9.40;;
14076;SDS011;7114;51.100;13.998;2023-05-07T03:30:36;22.08;;;9.48;;
14076;SDS011;7114;51.100;13.998;2023-05-07T03:33:02;21.13;;;9.10;;
14076;SDS011;7114;51.100;13.998;2023-05-07T03:35:28;20.73;;;9.43;;
14076;SDS011;7114;51.100;13.998;2023-05-07T03:37:54;22.43;;;9.80;;
14076;SDS011;7114;51.100;13.998;2023-05-07T03:40:22;22.38;;;9.82;;
14076;SDS011;7114;51.100;13.998;2023-05-07T03:42:48;20.50;;;9.98;;
14076;SDS011;7114;51.100;13.998;2023-05-07T03:45:14;21.20;;;10.02;;
14076;SDS011;7114;51.100;13.998;2023-05-07T03:47:40;20.33;;;8.90;;
14076;SDS011;7114;51.100;13.998;2023-05-07T03:50:07;22.43;;;9.70;;
14076;SDS011;7114;51.100;13.998;2023-05-07T03:52:33;19.65;;;9.15;;
14076;SDS011;7114;51.100;13.998;2023-05-07T03:54:59;20.67;;;9.90;;
14076;SDS011;7114;51.100;13.998;2023-05-07T03:57:26;20.35;;;9.70;;
14076;SDS011;7114;51.100;13.998;2023-05-07T03:59:52;22.92;;;10.50;;
14076;SDS011;7114;51.100;13.998;2023-05-07T04:02:19;21.17;;;9.93;;
14076;SDS011;7114;51.100;13.998;2023-05-07T04:04:45;21.02;;;9.50;;
14076;SDS011;7114;51.100;13.998;2023-05-07T04:07:11;24.05;;;10.30;;
14076;SDS011;7114;51.100;13.998;2023-05-07T04:09:37;23.15;;;9.52;;
14076;SDS011;7114;51.100;13.998;2023-05-07T04:12:04;19.55;;;8.82;;
14076;SDS011;7114;51.100;13.998;2023-05-07T04:14:31;21.07;;;9.33;;
14076;SDS011;7114;51.100;13.998;2023-05-07T04:16:58;21.10;;;9.73;;
14076;SDS011;7114;51.100;13.998;2023-05-07T04:19:24;23.35;;;10.00;;
14076;SDS011;7114;51.100;13.998;2023-05-07T04:21:50;20.75;;;8.95;;
14076;SDS011;7114;51.100;13.998;2023-05-07T04:24:16;20.30;;;9.30;;
14076;SDS011;7114;51.100;13.998;2023-05-07T04:26:42;18.73;;;8.70;;
14076;SDS011;7114;51.100;13.998;2023-05-07T04:29:09;20.30;;;9.18;;
14076;SDS011;7114;51.100;13.998;2023-05-07T04:31:36;19.50;;;9.50;;
14076;SDS011;7114;51.100;13.998;2023-05-07T04:34:02;17.63;;;8.30;;
14076;SDS011;7114;51.100;13.998;2023-05-07T04:36:28;19.63;;;8.75;;
14076;SDS011;7114;51.100;13.998;2023-05-07T04:38:54;18.73;;;8.83;;
14076;SDS011;7114;51.100;13.998;2023-05-07T04:41:21;18.27;;;8.38;;
14076;SDS011;7114;51.100;13.998;2023-05-07T04:43:47;20.15;;;8.88;;
14076;SDS011;7114;51.100;13.998;2023-05-07T04:46:13;17.40;;;8.30;;
14076;SDS011;7114;51.100;13.998;2023-05-07T04:48:40;18.27;;;8.43;;
14076;SDS011;7114;51.100;13.998;2023-05-07T04:51:06;18.27;;;8.90;;
14076;SDS011;7114;51.100;13.998;2023-05-07T04:53:33;19.23;;;8.60;;
14076;SDS011;7114;51.100;13.998;2023-05-07T04:55:59;18.05;;;7.50;;
14076;SDS011;7114;51.100;13.998;2023-05-07T04:58:25;18.60;;;8.50;;
14076;SDS011;7114;51.100;13.998;2023-05-07T05:00:52;18.13;;;8.57;;
14076;SDS011;7114;51.100;13.998;2023-05-07T05:03:18;17.47;;;7.40;;
14076;SDS011;7114;51.100;13.998;2023-05-07T05:05:45;16.92;;;7.78;;
14076;SDS011;7114;51.100;13.998;2023-05-07T05:08:12;16.20;;;7.10;;
14076;SDS011;7114;51.100;13.998;2023-05-07T05:10:38;16.23;;;7.50;;
14076;SDS011;7114;51.100;13.998;2023-05-07T05:13:04;16.88;;;7.35;;
14076;SDS011;7114;51.100;13.998;2023-05-07T05:15:30;15.93;;;7.07;;
14076;SDS011;7114;51.100;13.998;2023-05-07T05:17:56;16.90;;;7.32;;
14076;SDS011;7114;51.100;13.998;2023-05-07T05:20:22;15.15;;;6.60;;
14076;SDS011;7114;51.100;13.998;2023-05-07T05:22:50;13.77;;;6.22;;
14076;SDS011;7114;51.100;13.998;2023-05-07T05:25:16;14.63;;;5.75;;
14076;SDS011;7114;51.100;13.998;2023-05-07T05:27:42;14.63;;;6.33;;
14076;SDS011;7114;51.100;13.998;2023-05-07T05:30:09;14.48;;;6.07;;
14076;SDS011;7114;51.100;13.998;2023-05-07T05:32:35;18.92;;;7.50;;
14076;SDS011;7114;51.100;13.998;2023-05-07T05:35:01;16.30;;;6.65;;
14076;SDS011;7114;51.100;13.998;2023-05-07T05:37:27;13.82;;;6.20;;
14076;SDS011;7114;51.100;13.998;2023-05-07T05:39:56;15.43;;;6.70;;
14076;SDS011;7114;51.100;13.998;2023-05-07T05:42:22;14.93;;;6.68;;
14076;SDS011;7114;51.100;13.998;2023-05-07T05:44:48;13.68;;;5.78;;
14076;SDS011;7114;51.100;13.998;2023-05-07T05:47:15;14.98;;;6.45;;
14076;SDS011;7114;51.100;13.998;2023-05-07T05:49:41;14.55;;;6.38;;
14076;SDS011;7114;51.100;13.998;2023-05-07T05:52:08;12.13;;;5.37;;
14076;SDS011;7114;51.100;13.998;2023-05-07T05:54:34;13.52;;;5.97;;
14076;SDS011;7114;51.100;13.998;2023-05-07T05:57:01;12.45;;;5.45;;
14076;SDS011;7114;51.100;13.998;2023-05-07T05:59:29;11.05;;;5.05;;
14076;SDS011;7114;51.100;13.998;2023-05-07T06:01:55;11.02;;;5.10;;
14076;SDS011;7114;51.100;13.998;2023-05-07T06:04:21;14.20;;;6.53;;
14076;SDS011;7114;51.100;13.998;2023-05-07T06:06:47;12.98;;;6.13;;
14076;SDS011;7114;51.100;13.998;2023-05-07T06:09:13;14.07;;;5.93;;
14076;SDS011;7114;51.100;13.998;2023-05-07T06:11:40;12.52;;;5.80;;
14076;SDS011;7114;51.100;13.998;2023-05-07T06:14:07;14.00;;;6.40;;
14076;SDS011;7114;51.100;13.998;2023-05-07T06:16:33;12.80;;;5.83;;
14076;SDS011;7114;51.100;13.998;2023-05-07T06:19:00;13.45;;;6.45;;
14076;SDS011;7114;51.100;13.998;2023-05-07T06:21:26;12.63;;;5.55;;
14076;SDS011;7114;51.100;13.998;2023-05-07T06:23:52;12.30;;;5.78;;
14076;SDS011;7114;51.100;13.998;2023-05-07T06:26:19;10.25;;;4.78;;
14076;SDS011;7114;51.100;13.998;2023-05-07T06:28:46;11.77;;;4.60;;
14076;SDS011;7114;51.100;13.998;2023-05-07T06:31:14;9.40;;;4.25;;
14076;SDS011;7114;51.100;13.998;2023-05-07T06:33:41;9.30;;;4.40;;
14076;SDS011;7114;51.100;13.998;2023-05-07T06:36:07;8.75;;;3.80;;
14076;SDS011;7114;51.100;13.998;2023-05-07T06:38:33;9.15;;;3.55;;
14076;SDS011;7114;51.100;13.998;2023-05-07T06:40:59;9.23;;;3.40;;
14076;SDS011;7114;51.100;13.998;2023-05-07T06:43:26;7.88;;;3.45;;
14076;SDS011;7114;51.100;13.998;2023-05-07T06:45:52;7.60;;;3.20;;
14076;SDS011;7114;51.100;13.998;2023-05-07T06:48:19;7.82;;;3.10;;
14076;SDS011;7114;51.100;13.998;2023-05-07T06:50:45;8.68;;;3.47;;
14076;SDS011;7114;51.100;13.998;2023-05-07T06:53:11;7.90;;;3.07;;
14076;SDS011;7114;51.100;13.998;2023-05-07T06:55:38;7.80;;;3.13;;
14076;SDS011;7114;51.100;13.998;2023-05-07T06:58:04;7.47;;;3.30;;
14076;SDS011;7114;51.100;13.998;2023-05-07T07:00:30;8.00;;;3.25;;
14076;SDS011;7114;51.100;13.998;2023-05-07T07:02:57;6.75;;;2.88;;
14076;SDS011;7114;51.100;13.998;2023-05-07T07:05:25;7.50;;;2.90;;
14076;SDS011;7114;51.100;13.998;2023-05-07T07:07:51;7.68;;;3.10;;
14076;SDS011;7114;51.100;13.998;2023-05-07T07:10:18;7.65;;;3.25;;
14076;SDS011;7114;51.100;13.998;2023-05-07T07:12:44;8.02;;;3.03;;
14076;SDS011;7114;51.100;13.998;2023-05-07T07:15:10;7.32;;;3.15;;
14076;SDS011;7114;51.100;13.998;2023-05-07T07:17:37;7.37;;;2.73;;
14076;SDS011;7114;51.100;13.998;2023-05-07T07:20:03;7.28;;;2.80;;
14076;SDS011;7114;51.100;13.998;2023-05-07T07:22:31;7.13;;;2.80;;
14076;SDS011;7114;51.100;13.998;2023-05-07T07:24:57;8.27;;;2.63;;
14076;SDS011;7114;51.100;13.998;2023-05-07T07:27:23;6.93;;;2.95;;
14076;SDS011;7114;51.100;13.998;2023-05-07T07:29:49;6.70;;;2.70;;
14076;SDS011;7114;51.100;13.998;2023-05-07T07:32:15;7.75;;;3.13;;
14076;SDS011;7114;51.100;13.998;2023-05-07T07:34:41;7.07;;;3.08;;
14076;SDS011;7114;51.100;13.998;2023-05-07T07:37:08;7.15;;;2.80;;
14076;SDS011;7114;51.100;13.998;2023-05-07T07:39:35;7.00;;;2.90;;
14076;SDS011;7114;51.100;13.998;2023-05-07T07:42:02;6.37;;;2.50;;
14076;SDS011;7114;51.100;13.998;2023-05-07T07:44:28;6.93;;;2.60;;
14076;SDS011;7114;51.100;13.998;2023-05-07T07:46:55;6.40;;;2.70;;
14076;SDS011;7114;51.100;13.998;2023-05-07T07:49:21;7.25;;;2.88;;
14076;SDS011;7114;51.100;13.998;2023-05-07T07:51:47;6.68;;;2.60;;
14076;SDS011;7114;51.100;13.998;2023-05-07T07:54:13;7.70;;;2.83;;
14076;SDS011;7114;51.100;13.998;2023-05-07T07:56:41;6.82;;;2.83;;
14076;SDS011;7114;51.100;13.998;2023-05-07T07:59:07;8.07;;;3.85;;
14076;SDS011;7114;51.100;13.998;2023-05-07T08:01:33;7.32;;;3.25;;
14076;SDS011;7114;51.100;13.998;2023-05-07T08:04:00;8.73;;;4.10;;
14076;SDS011;7114;51.100;13.998;2023-05-07T08:06:28;10.20;;;4.40;;
14076;SDS011;7114;51.100;13.998;2023-05-07T08:08:54;9.85;;;4.25;;
14076;SDS011;7114;51.100;13.998;2023-05-07T08:11:20;10.27;;;4.55;;
14076;SDS011;7114;51.100;13.998;2023-05-07T08:13:47;10.32;;;4.57;;
14076;SDS011;7114;51.100;13.998;2023-05-07T08:16:14;10.18;;;4.32;;
14076;SDS011;7114;51.100;13.998;2023-05-07T08:18:40;8.60;;;3.80;;
14076;SDS011;7114;51.100;13.998;2023-05-07T08:21:06;11.02;;;4.15;;
14076;SDS011;7114;51.100;13.998;2023-05-07T08:23:32;9.50;;;4.32;;
14076;SDS011;7114;51.100;13.998;2023-05-07T08:25:59;9.18;;;4.15;;
14076;SDS011;7114;51.100;13.998;2023-05-07T08:28:25;9.13;;;4.10;;
14076;SDS011;7114;51.100;13.998;2023-05-07T08:30:53;9.23;;;3.53;;
14076;SDS011;7114;51.100;13.998;2023-05-07T08:33:21;10.00;;;4.25;;
14076;SDS011;7114;51.100;13.998;2023-05-07T08:35:47;9.52;;;4.45;;
14076;SDS011;7114;51.100;13.998;2023-05-07T08:38:13;9.07;;;3.60;;
14076;SDS011;7114;51.100;13.998;2023-05-07T08:40:39;8.30;;;3.70;;
14076;SDS011;7114;51.100;13.998;2023-05-07T08:43:06;8.53;;;3.83;;
14076;SDS011;7114;51.100;13.998;2023-05-07T08:45:33;9.27;;;4.55;;
14076;SDS011;7114;51.100;13.998;2023-05-07T08:48:02;9.70;;;4.15;;
14076;SDS011;7114;51.100;13.998;2023-05-07T08:50:28;8.85;;;4.07;;
14076;SDS011;7114;51.100;13.998;2023-05-07T08:52:54;9.80;;;4.15;;
14076;SDS011;7114;51.100;13.998;2023-05-07T08:55:22;8.83;;;4.10;;
14076;SDS011;7114;51.100;13.998;2023-05-07T08:57:48;8.80;;;4.15;;
14076;SDS011;7114;51.100;13.998;2023-05-07T09:00:15;9.40;;;4.30;;
14076;SDS011;7114;51.100;13.998;2023-05-07T09:02:41;8.77;;;3.92;;
14076;SDS011;7114;51.100;13.998;2023-05-07T09:05:09;10.02;;;4.90;;
14076;SDS011;7114;51.100;13.998;2023-05-07T09:07:35;9.67;;;4.67;;
14076;SDS011;7114;51.100;13.998;2023-05-07T09:10:02;9.60;;;5.22;;
14076;SDS011;7114;51.100;13.998;2023-05-07T09:12:28;10.82;;;5.13;;
14076;SDS011;7114;51.100;13.998;2023-05-07T09:14:54;9.93;;;5.18;;
14076;SDS011;7114;51.100;13.998;2023-05-07T09:17:20;11.38;;;5.45;;
14076;SDS011;7114;51.100;13.998;2023-05-07T09:19:47;12.17;;;5.47;;
14076;SDS011;7114;51.100;13.998;2023-05-07T09:22:14;10.60;;;5.60;;
14076;SDS011;7114;51.100;13.998;2023-05-07T09:24:41;11.70;;;5.40;;
14076;SDS011;7114;51.100;13.998;2023-05-07T09:27:12;11.48;;;5.32;;
14076;SDS011;7114;51.100;13.998;2023-05-07T09:29:39;10.93;;;5.50;;
14076;SDS011;7114;51.100;13.998;2023-05-07T09:32:05;10.70;;;5.07;;
14076;SDS011;7114;51.100;13.998;2023-05-07T09:34:31;10.00;;;5.50;;
14076;SDS011;7114;51.100;13.998;2023-05-07T09:36:58;11.63;;;5.43;;
14076;SDS011;7114;51.100;13.998;2023-05-07T09:39:25;9.50;;;4.85;;
14076;SDS011;7114;51.100;13.998;2023-05-07T09:41:52;9.15;;;4.93;;
14076;SDS011;7114;51.100;13.998;2023-05-07T09:44:19;9.00;;;4.50;;
14076;SDS011;7114;51.100;13.998;2023-05-07T09:46:46;9.23;;;4.57;;
14076;SDS011;7114;51.100;13.998;2023-05-07T09:49:22;8.65;;;4.45;;
14076;SDS011;7114;51.100;13.998;2023-05-07T09:51:50;8.90;;;4.50;;
14076;SDS011;7114;51.100;13.998;2023-05-07T09:54:17;9.65;;;4.72;;
14076;SDS011;7114;51.100;13.998;2023-05-07T09:56:45;9.30;;;5.13;;
14076;SDS011;7114;51.100;13.998;2023-05-07T09:59:14;9.20;;;4.72;;
14076;SDS011;7114;51.100;13.998;2023-05-07T10:01:41;9.20;;;4.65;;
14076;SDS011;7114;51.100;13.998;2023-05-07T10:04:08;8.57;;;4.45;;
14076;SDS011;7114;51.100;13.998;2023-05-07T10:06:34;8.65;;;4.50;;
14076;SDS011;7114;51.100;13.998;2023-05-07T10:09:01;9.03;;;4.27;;
14076;SDS011;7114;51.100;13.998;2023-05-07T10:11:27;9.50;;;4.80;;
14076;SDS011;7114;51.100;13.998;2023-05-07T10:13:55;8.63;;;3.92;;
14076;SDS011;7114;51.100;13.998;2023-05-07T10:16:21;8.70;;;4.18;;
14076;SDS011;7114;51.100;13.998;2023-05-07T10:18:48;7.63;;;4.15;;
14076;SDS011;7114;51.100;13.998;2023-05-07T10:21:16;7.60;;;4.00;;
14076;SDS011;7114;51.100;13.998;2023-05-07T10:23:43;7.72;;;4.07;;
14076;SDS011;7114;51.100;13.998;2023-05-07T10:26:10;8.07;;;3.95;;
14076;SDS011;7114;51.100;13.998;2023-05-07T10:28:39;7.95;;;4.07;;
14076;SDS011;7114;51.100;13.998;2023-05-07T10:31:15;8.10;;;3.92;;
14076;SDS011;7114;51.100;13.998;2023-05-07T10:33:43;7.77;;;3.77;;
14076;SDS011;7114;51.100;13.998;2023-05-07T10:36:10;7.57;;;3.53;;
14076;SDS011;7114;51.100;13.998;2023-05-07T10:38:37;8.02;;;3.97;;
14076;SDS011;7114;51.100;13.998;2023-05-07T10:41:03;8.68;;;4.00;;
14076;SDS011;7114;51.100;13.998;2023-05-07T10:43:39;8.15;;;4.28;;
14076;SDS011;7114;51.100;13.998;2023-05-07T10:46:10;7.70;;;3.70;;
14076;SDS011;7114;51.100;13.998;2023-05-07T10:48:47;7.22;;;3.90;;
14076;SDS011;7114;51.100;13.998;2023-05-07T10:51:32;7.43;;;3.97;;
14076;SDS011;7114;51.100;13.998;2023-05-07T10:56:43;9.73;;;3.67;;
14076;SDS011;7114;51.100;13.998;2023-05-07T11:01:53;9.18;;;4.40;;
14076;SDS011;7114;51.100;13.998;2023-05-07T11:04:21;9.27;;;4.40;;
14076;SDS011;7114;51.100;13.998;2023-05-07T11:07:10;7.65;;;4.25;;
14076;SDS011;7114;51.100;13.998;2023-05-07T11:10:01;8.63;;;4.22;;
14076;SDS011;7114;51.100;13.998;2023-05-07T11:15:14;6.90;;;3.40;;
14076;SDS011;7114;51.100;13.998;2023-05-07T11:17:51;8.07;;;3.53;;
14076;SDS011;7114;51.100;13.998;2023-05-07T11:20:19;6.75;;;3.53;;
14076;SDS011;7114;51.100;13.998;2023-05-07T11:22:45;7.28;;;3.80;;
14076;SDS011;7114;51.100;13.998;2023-05-07T11:25:14;7.03;;;3.40;;
14076;SDS011;7114;51.100;13.998;2023-05-07T11:27:43;7.65;;;3.60;;
14076;SDS011;7114;51.100;13.998;2023-05-07T11:30:09;7.50;;;3.60;;
14076;SDS011;7114;51.100;13.998;2023-05-07T11:32:35;9.23;;;4.10;;
14076;SDS011;7114;51.100;13.998;2023-05-07T11:35:02;6.90;;;3.85;;
14076;SDS011;7114;51.100;13.998;2023-05-07T11:37:29;7.30;;;3.80;;
14076;SDS011;7114;51.100;13.998;2023-05-07T11:40:02;7.07;;;4.20;;
14076;SDS011;7114;51.100;13.998;2023-05-07T11:42:30;7.43;;;4.00;;
14076;SDS011;7114;51.100;13.998;2023-05-07T11:44:57;6.80;;;3.80;;
14076;SDS011;7114;51.100;13.998;2023-05-07T11:47:24;8.07;;;4.15;;
14076;SDS011;7114;51.100;13.998;2023-05-07T11:49:50;7.77;;;4.40;;
14076;SDS011;7114;51.100;13.998;2023-05-07T11:52:17;7.15;;;3.63;;
14076;SDS011;7114;51.100;13.998;2023-05-07T11:54:49;7.90;;;4.22;;
14076;SDS011;7114;51.100;13.998;2023-05-07T11:57:15;7.22;;;3.88;;
14076;SDS011;7114;51.100;13.998;2023-05-07T11:59:42;6.53;;;3.45;;
14076;SDS011;7114;51.100;13.998;2023-05-07T12:02:09;6.67;;;3.57;;
14076;SDS011;7114;51.100;13.998;2023-05-07T12:04:35;7.75;;;4.00;;
14076;SDS011;7114;51.100;13.998;2023-05-07T12:07:01;6.30;;;3.42;;
14076;SDS011;7114;51.100;13.998;2023-05-07T12:09:27;6.70;;;3.67;;
14076;SDS011;7114;51.100;13.998;2023-05-07T12:11:56;9.40;;;4.38;;
14076;SDS011;7114;51.100;13.998;2023-05-07T12:14:22;7.47;;;4.10;;
14076;SDS011;7114;51.100;13.998;2023-05-07T12:16:48;8.77;;;4.20;;
14076;SDS011;7114;51.100;13.998;2023-05-07T12:19:14;7.90;;;4.43;;
14076;SDS011;7114;51.100;13.998;2023-05-07T12:21:40;7.03;;;4.10;;
14076;SDS011;7114;51.100;13.998;2023-05-07T12:24:07;6.90;;;4.07;;
14076;SDS011;7114;51.100;13.998;2023-05-07T12:26:36;7.37;;;3.70;;
14076;SDS011;7114;51.100;13.998;2023-05-07T12:29:04;7.47;;;4.28;;
14076;SDS011;7114;51.100;13.998;2023-05-07T12:31:30;6.95;;;3.72;;
14076;SDS011;7114;51.100;13.998;2023-05-07T12:33:56;6.00;;;3.20;;
14076;SDS011;7114;51.100;13.998;2023-05-07T12:36:22;6.55;;;3.30;;
14076;SDS011;7114;51.100;13.998;2023-05-07T12:38:49;6.63;;;3.73;;
14076;SDS011;7114;51.100;13.998;2023-05-07T12:41:15;5.90;;;3.10;;
14076;SDS011;7114;51.100;13.998;2023-05-07T12:43:43;6.45;;;3.20;;
14076;SDS011;7114;51.100;13.998;2023-05-07T12:46:11;8.40;;;3.17;;
14076;SDS011;7114;51.100;13.998;2023-05-07T12:48:38;6.57;;;3.80;;
14076;SDS011;7114;51.100;13.998;2023-05-07T12:51:09;7.00;;;3.57;;
14076;SDS011;7114;51.100;13.998;2023-05-07T12:53:39;6.20;;;3.42;;
14076;SDS011;7114;51.100;13.998;2023-05-07T12:56:06;6.03;;;3.10;;
14076;SDS011;7114;51.100;13.998;2023-05-07T12:58:33;6.10;;;3.00;;
14076;SDS011;7114;51.100;13.998;2023-05-07T13:00:59;6.00;;;3.50;;
14076;SDS011;7114;51.100;13.998;2023-05-07T13:03:27;6.40;;;3.20;;
14076;SDS011;7114;51.100;13.998;2023-05-07T13:05:54;5.90;;;3.40;;
14076;SDS011;7114;51.100;13.998;2023-05-07T13:08:24;5.80;;;3.40;;
14076;SDS011;7114;51.100;13.998;2023-05-07T13:10:50;6.32;;;3.72;;
14076;SDS011;7114;51.100;13.998;2023-05-07T13:13:16;5.63;;;3.15;;
14076;SDS011;7114;51.100;13.998;2023-05-07T13:15:42;5.90;;;3.03;;
14076;SDS011;7114;51.100;13.998;2023-05-07T13:18:09;6.47;;;3.33;;
14076;SDS011;7114;51.100;13.998;2023-05-07T13:20:37;6.03;;;3.53;;
14076;SDS011;7114;51.100;13.998;2023-05-07T13:23:03;6.15;;;2.97;;
14076;SDS011;7114;51.100;13.998;2023-05-07T13:25:30;6.43;;;3.97;;
14076;SDS011;7114;51.100;13.998;2023-05-07T13:27:56;6.70;;;3.40;;
14076;SDS011;7114;51.100;13.998;2023-05-07T13:30:22;5.60;;;2.97;;
14076;SDS011;7114;51.100;13.998;2023-05-07T13:32:48;6.80;;;3.10;;
14076;SDS011;7114;51.100;13.998;2023-05-07T13:35:15;5.75;;;2.78;;
14076;SDS011;7114;51.100;13.998;2023-05-07T13:37:43;6.68;;;3.53;;
14076;SDS011;7114;51.100;13.998;2023-05-07T13:40:10;5.78;;;2.85;;
14076;SDS011;7114;51.100;13.998;2023-05-07T13:42:36;6.00;;;2.83;;
14076;SDS011;7114;51.100;13.998;2023-05-07T13:45:02;5.45;;;2.58;;
14076;SDS011;7114;51.100;13.998;2023-05-07T13:47:30;6.30;;;2.75;;
14076;SDS011;7114;51.100;13.998;2023-05-07T13:49:56;6.28;;;2.85;;
14076;SDS011;7114;51.100;13.998;2023-05-07T13:52:22;6.50;;;2.63;;
14076;SDS011;7114;51.100;13.998;2023-05-07T13:54:50;6.10;;;2.60;;
14076;SDS011;7114;51.100;13.998;2023-05-07T13:57:17;6.32;;;2.58;;
14076;SDS011;7114;51.100;13.998;2023-05-07T13:59:43;6.65;;;2.55;;
14076;SDS011;7114;51.100;13.998;2023-05-07T14:02:09;6.10;;;2.67;;
14076;SDS011;7114;51.100;13.998;2023-05-07T14:04:36;6.75;;;2.60;;
14076;SDS011;7114;51.100;13.998;2023-05-07T14:07:03;6.30;;;2.60;;
14076;SDS011;7114;51.100;13.998;2023-05-07T14:09:30;5.88;;;2.60;;
14076;SDS011;7114;51.100;13.998;2023-05-07T14:11:58;5.72;;;2.70;;
14076;SDS011;7114;51.100;13.998;2023-05-07T14:14:24;5.93;;;2.92;;
14076;SDS011;7114;51.100;13.998;2023-05-07T14:16:50;5.75;;;2.67;;
14076;SDS011;7114;51.100;13.998;2023-05-07T14:19:16;6.93;;;3.20;;
14076;SDS011;7114;51.100;13.998;2023-05-07T14:21:42;6.10;;;3.10;;
14076;SDS011;7114;51.100;13.998;2023-05-07T14:24:09;6.90;;;3.60;;
14076;SDS011;7114;51.100;13.998;2023-05-07T14:26:35;6.75;;;3.45;;
14076;SDS011;7114;51.100;13.998;2023-05-07T14:29:02;5.95;;;2.90;;
14076;SDS011;7114;51.100;13.998;2023-05-07T14:31:28;7.00;;;3.23;;
14076;SDS011;7114;51.100;13.998;2023-05-07T14:33:55;6.20;;;3.15;;
14076;SDS011;7114;51.100;13.998;2023-05-07T14:36:22;6.68;;;3.53;;
14076;SDS011;7114;51.100;13.998;2023-05-07T14:38:51;7.25;;;3.38;;
14076;SDS011;7114;51.100;13.998;2023-05-07T14:41:17;6.32;;;3.05;;
14076;SDS011;7114;51.100;13.998;2023-05-07T14:43:43;7.10;;;2.90;;
14076;SDS011;7114;51.100;13.998;2023-05-07T14:46:16;8.15;;;3.70;;